Time;durP1;ratioP1;P1;durP2;ratioP2;P2;SDS_P1;SDS_P2;PMS_P1;PMS_P2;Temp;Humidity;BMP_temperature;BMP_pressure;BME280_temperature;BME280_humidity;BME280_pressure;Samples;Min_cycle;Max_cycle;Signal;HPM_P1;HPM_P2
2021/04/12 00:00:41;;;;;;;1.13;1.02;;;10.90;67.20;;;;;;5101160;28;27419;-61
2021/04/12 00:08:01;;;;;;;2.55;1.00;;;10.80;67.20;;;;;;5104697;28;27356;-60
2021/04/12 00:11:26;;;;;;;0.70;0.70;;;10.80;67.30;;;;;;5100647;28;27331;-63
2021/04/12 00:14:46;;;;;;;0.70;0.70;;;10.70;67.00;;;;;;5100889;28;27426;-60
2021/04/12 00:17:51;;;;;;;0.65;0.65;;;10.70;66.90;;;;;;5104358;28;27408;-60
2021/04/12 00:20:57;;;;;;;1.15;0.70;;;10.70;67.10;;;;;;5103587;28;27373;-60
2021/04/12 00:24:11;;;;;;;2.15;0.70;;;10.70;66.70;;;;;;5104617;28;27341;-60
2021/04/12 00:27:18;;;;;;;0.73;0.73;;;10.60;66.70;;;;;;5104024;28;27289;-59
2021/04/12 00:30:48;;;;;;;0.65;0.65;;;10.60;67.10;;;;;;5103184;28;27324;-60
2021/04/12 00:34:24;;;;;;;1.33;0.80;;;10.50;67.10;;;;;;5103969;28;26917;-61
2021/04/12 00:37:51;;;;;;;0.68;0.68;;;10.50;67.00;;;;;;5104392;28;27405;-60
2021/04/12 00:41:27;;;;;;;0.85;0.85;;;10.40;67.10;;;;;;5103653;28;27423;-59
2021/04/12 00:44:43;;;;;;;0.80;0.80;;;10.40;67.30;;;;;;5103245;28;27544;-60
2021/04/12 00:47:57;;;;;;;0.85;0.85;;;10.30;67.20;;;;;;5100734;28;27449;-60
2021/04/12 00:51:40;;;;;;;0.63;0.63;;;10.20;67.50;;;;;;5103924;28;27363;-64
2021/04/12 00:55:11;;;;;;;1.00;0.90;;;10.20;67.50;;;;;;5100175;28;27411;-60
2021/04/12 00:58:17;;;;;;;0.85;0.85;;;10.20;67.80;;;;;;5100600;28;27586;-60
2021/04/12 01:01:13;;;;;;;0.70;0.70;;;10.20;67.70;;;;;;5103769;28;27493;-60
2021/04/12 01:04:27;;;;;;;0.98;0.90;;;10.20;67.60;;;;;;5100464;28;27370;-60
2021/04/12 01:07:42;;;;;;;2.15;1.00;;;10.10;67.50;;;;;;5099117;28;27441;-60
2021/04/12 01:11:02;;;;;;;1.58;0.80;;;10.00;67.90;;;;;;5103148;28;27441;-63
2021/04/12 01:14:37;;;;;;;1.00;0.90;;;10.00;68.10;;;;;;5103022;28;27405;-60
2021/04/12 01:17:43;;;;;;;1.10;1.00;;;10.00;67.50;;;;;;5103750;28;27439;-61
2021/04/12 01:21:02;;;;;;;1.15;1.05;;;10.00;67.20;;;;;;5103511;28;27375;-60
2021/04/12 01:24:10;;;;;;;2.22;1.30;;;10.00;67.20;;;;;;5099318;28;27518;-59
2021/04/12 01:27:02;;;;;;;1.02;0.98;;;10.00;67.10;;;;;;5100109;28;27381;-61
2021/04/12 01:30:25;;;;;;;1.42;1.33;;;10.00;67.20;;;;;;5100026;28;27496;-60
2021/04/12 01:33:49;;;;;;;1.35;1.25;;;9.90;67.60;;;;;;5103227;28;27949;-60
2021/04/12 01:37:21;;;;;;;1.38;1.27;;;9.90;67.60;;;;;;5103183;28;27489;-62
2021/04/12 01:40:24;;;;;;;1.50;1.40;;;9.90;67.60;;;;;;5103483;28;27387;-60
2021/04/12 01:43:30;;;;;;;1.38;1.27;;;9.80;67.50;;;;;;5103292;28;27527;-59
2021/04/12 01:46:20;;;;;;;1.50;1.40;;;9.80;67.30;;;;;;5103283;28;27417;-60
2021/04/12 01:49:26;;;;;;;2.10;1.90;;;9.70;67.60;;;;;;5102300;28;27403;-60
2021/04/12 01:52:46;;;;;;;1.95;1.80;;;9.60;67.50;;;;;;5102868;28;28067;-60
2021/04/12 01:55:56;;;;;;;1.48;1.38;;;9.60;67.00;;;;;;5102520;28;27383;-60
2021/04/12 01:59:34;;;;;;;1.60;1.50;;;9.60;67.40;;;;;;5102078;28;27800;-60
2021/04/12 02:02:32;;;;;;;1.90;1.80;;;9.60;67.50;;;;;;5102736;28;27456;-60
2021/04/12 02:05:24;;;;;;;1.80;1.58;;;9.60;67.10;;;;;;5103085;28;27405;-59
2021/04/12 02:09:04;;;;;;;1.83;1.73;;;9.60;67.30;;;;;;5102899;28;27466;-60
2021/04/12 02:12:43;;;;;;;2.50;1.70;;;9.60;67.10;;;;;;5101865;28;27383;-60
2021/04/12 02:16:03;;;;;;;1.90;1.73;;;9.50;67.40;;;;;;5103067;28;27420;-60
2021/04/12 02:19:02;;;;;;;2.05;1.92;;;9.40;67.70;;;;;;5105290;27;27638;-60
2021/04/12 02:22:15;;;;;;;2.22;1.75;;;9.40;67.40;;;;;;5105774;28;27456;-60
2021/04/12 02:25:33;;;;;;;3.20;1.88;;;9.30;67.70;;;;;;5106408;28;27352;-60
2021/04/12 02:28:49;;;;;;;2.10;1.90;;;9.30;67.30;;;;;;5106379;28;27442;-60
2021/04/12 02:31:41;;;;;;;1.60;1.50;;;9.30;67.50;;;;;;5106366;28;27470;-60
2021/04/12 02:35:00;;;;;;;2.13;1.92;;;9.30;67.60;;;;;;5106081;28;26965;-61
2021/04/12 02:37:54;;;;;;;1.70;1.55;;;9.20;67.80;;;;;;5106144;28;27415;-61
2021/04/12 02:40:54;;;;;;;2.03;1.83;;;9.20;68.10;;;;;;5102748;28;27383;-60
2021/04/12 02:44:01;;;;;;;1.67;1.58;;;9.20;67.80;;;;;;5106075;28;27426;-63
2021/04/12 02:47:22;;;;;;;2.25;1.85;;;9.10;67.70;;;;;;5105993;28;27366;-60
2021/04/12 02:51:02;;;;;;;2.03;1.90;;;9.10;67.80;;;;;;5104961;28;27357;-60
2021/04/12 02:54:19;;;;;;;2.00;1.90;;;9.10;67.10;;;;;;5105606;28;27532;-61
2021/04/12 02:58:02;;;;;;;2.03;1.92;;;9.10;66.60;;;;;;5105734;28;27482;-60
2021/04/12 03:01:30;;;;;;;1.92;1.83;;;9.20;66.70;;;;;;5103060;28;27601;-61
2021/04/12 03:04:42;;;;;;;2.20;2.00;;;9.10;66.60;;;;;;5103699;28;27554;-62
2021/04/12 03:08:31;;;;;;;2.60;2.20;;;9.10;66.90;;;;;;5100246;28;27534;-61
2021/04/12 03:11:43;;;;;;;2.40;2.20;;;9.10;67.10;;;;;;5086322;28;27378;-61
2021/04/12 03:14:54;;;;;;;2.72;2.35;;;9.10;67.40;;;;;;5103443;28;27541;-61
2021/04/12 03:17:58;;;;;;;1.77;1.67;;;9.00;67.40;;;;;;5103749;28;27545;-60
2021/04/12 03:21:21;;;;;;;2.60;2.25;;;9.00;67.70;;;;;;5074679;28;27448;-61
2021/04/12 03:24:28;;;;;;;2.45;2.03;;;9.00;67.60;;;;;;5088096;28;27547;-60
2021/04/12 03:27:44;;;;;;;2.60;2.20;;;9.00;67.70;;;;;;5086094;28;27378;-61
2021/04/12 03:30:53;;;;;;;2.22;2.03;;;8.90;67.70;;;;;;5088702;28;27381;-60
2021/04/12 03:34:20;;;;;;;2.40;2.20;;;8.90;68.10;;;;;;5103707;28;27411;-63
2021/04/12 03:37:47;;;;;;;2.78;2.33;;;8.90;67.80;;;;;;5105035;28;26916;-60
2021/04/12 03:41:00;;;;;;;2.72;2.50;;;8.90;67.80;;;;;;5104153;28;27578;-60
2021/04/12 03:44:04;;;;;;;3.60;2.35;;;8.90;67.70;;;;;;5105243;28;27484;-60
2021/04/12 03:47:47;;;;;;;2.42;2.22;;;8.90;67.80;;;;;;5104577;28;27468;-60
2021/04/12 03:51:03;;;;;;;2.35;2.15;;;8.90;67.60;;;;;;5104031;28;27484;-60
2021/04/12 03:54:38;;;;;;;3.97;2.55;;;8.90;67.90;;;;;;5104932;28;27449;-61
2021/04/12 03:58:01;;;;;;;3.42;2.38;;;8.80;67.60;;;;;;5104914;28;27861;-61
2021/04/12 04:01:13;;;;;;;2.25;2.05;;;8.80;67.80;;;;;;5101537;28;27409;-62
2021/04/12 04:04:22;;;;;;;2.90;2.60;;;8.70;67.80;;;;;;5104664;28;27382;-60
2021/04/12 04:07:31;;;;;;;3.13;2.50;;;8.70;67.90;;;;;;5104306;28;27491;-61
2021/04/12 04:10:53;;;;;;;2.83;2.53;;;8.70;68.00;;;;;;5104515;28;27481;-61
2021/04/12 04:14:16;;;;;;;3.22;2.50;;;8.70;68.10;;;;;;5103848;28;27461;-61
2021/04/12 04:17:46;;;;;;;2.38;2.00;;;8.70;68.00;;;;;;5104675;28;27447;-61
2021/04/12 04:21:07;;;;;;;2.85;2.35;;;8.70;68.30;;;;;;5104261;28;27404;-60
2021/04/12 04:24:23;;;;;;;2.47;2.28;;;8.70;68.60;;;;;;5104163;28;27423;-61
2021/04/12 04:27:53;;;;;;;7.32;2.47;;;8.60;68.60;;;;;;5104275;28;27485;-60
2021/04/12 04:31:05;;;;;;;2.63;2.13;;;8.60;68.70;;;;;;5101006;28;27413;-60
2021/04/12 04:34:52;;;;;;;2.60;2.28;;;8.60;68.60;;;;;;5102534;28;26998;-61
2021/04/12 04:38:07;;;;;;;3.05;2.17;;;8.60;68.60;;;;;;5103726;28;27934;-60
2021/04/12 04:41:20;;;;;;;2.00;1.80;;;8.50;68.60;;;;;;5104078;27;27333;-60
2021/04/12 04:44:35;;;;;;;2.33;2.13;;;8.50;68.50;;;;;;5102139;28;27426;-60
2021/04/12 04:48:38;;;;;;;2.28;2.05;;;8.50;68.60;;;;;;5103122;28;27590;-60
2021/04/12 04:51:29;;;;;;;2.58;1.95;;;8.50;68.80;;;;;;5103920;28;27461;-60
2021/04/12 04:54:30;;;;;;;3.03;1.70;;;8.40;68.70;;;;;;5103814;28;27378;-60
2021/04/12 04:58:12;;;;;;;2.20;2.00;;;8.40;68.90;;;;;;5100424;28;27452;-60
2021/04/12 05:01:26;;;;;;;2.03;1.83;;;8.30;69.30;;;;;;5103802;28;27627;-60
2021/04/12 05:04:58;;;;;;;2.53;1.70;;;8.30;69.50;;;;;;5102604;28;27435;-63
2021/04/12 05:08:08;;;;;;;3.45;2.30;;;8.30;69.60;;;;;;5103386;28;27394;-60
2021/04/12 05:11:53;;;;;;;1.85;1.60;;;8.20;69.60;;;;;;5101980;28;27480;-60
2021/04/12 05:15:37;;;;;;;2.05;1.85;;;8.10;69.80;;;;;;5102368;28;27631;-60
2021/04/12 05:19:01;;;;;;;1.98;1.75;;;8.10;69.80;;;;;;5103147;28;27427;-60
2021/04/12 05:22:20;;;;;;;1.88;1.77;;;8.00;70.00;;;;;;5099508;28;27458;-60
2021/04/12 05:25:43;;;;;;;2.78;1.73;;;8.00;70.20;;;;;;5103283;28;27461;-60
2021/04/12 05:28:31;;;;;;;1.95;1.75;;;8.00;70.30;;;;;;5100256;28;27449;-61
2021/04/12 05:31:48;;;;;;;2.08;1.90;;;8.00;70.60;;;;;;5103403;28;27464;-60
2021/04/12 05:34:49;;;;;;;2.00;1.75;;;8.00;70.60;;;;;;5102963;28;27402;-63
2021/04/12 05:37:46;;;;;;;1.67;1.58;;;8.00;70.70;;;;;;5103620;28;27472;-61
2021/04/12 05:40:43;;;;;;;1.73;1.63;;;8.00;70.70;;;;;;5100003;28;27338;-60
2021/04/12 05:44:01;;;;;;;1.58;1.38;;;8.00;71.00;;;;;;5102845;28;27331;-61
2021/04/12 05:47:11;;;;;;;1.65;1.55;;;8.00;71.30;;;;;;5102734;28;27383;-60
2021/04/12 05:50:26;;;;;;;2.00;1.52;;;8.00;71.50;;;;;;5102301;28;27372;-60
2021/04/12 05:53:43;;;;;;;2.03;1.83;;;8.00;71.70;;;;;;5105026;27;27422;-60
2021/04/12 05:56:52;;;;;;;1.67;1.52;;;8.00;71.70;;;;;;5103659;28;27307;-61
2021/04/12 06:00:18;;;;;;;1.35;1.15;;;8.00;71.90;;;;;;5106237;28;27488;-61
2021/04/12 06:03:48;;;;;;;2.15;1.45;;;8.00;71.70;;;;;;5106585;28;27452;-61
2021/04/12 06:06:58;;;;;;;1.08;1.00;;;8.10;71.60;;;;;;5106900;28;27339;-60
2021/04/12 06:10:19;;;;;;;2.95;1.77;;;8.10;71.40;;;;;;5106456;28;27440;-61
2021/04/12 06:13:56;;;;;;;2.90;1.95;;;8.10;71.40;;;;;;5105871;28;27440;-60
2021/04/12 06:17:36;;;;;;;2.50;1.80;;;8.20;71.40;;;;;;5106594;28;27417;-60
2021/04/12 06:21:35;;;;;;;2.97;2.08;;;8.20;71.30;;;;;;5103387;28;27471;-61
2021/04/12 06:25:12;;;;;;;2.25;1.60;;;8.20;71.30;;;;;;5106172;28;27876;-64
2021/04/12 06:28:21;;;;;;;2.17;1.70;;;8.30;71.30;;;;;;5106476;28;27407;-60
2021/04/12 06:31:46;;;;;;;4.13;2.10;;;8.30;70.90;;;;;;5106886;28;27366;-60
2021/04/12 06:35:45;;;;;;;2.95;2.42;;;8.40;71.00;;;;;;5103822;28;27411;-61
2021/04/12 06:38:55;;;;;;;2.78;2.10;;;8.40;70.60;;;;;;5107581;28;27883;-60
2021/04/12 06:42:15;;;;;;;3.50;2.67;;;8.40;70.90;;;;;;5107208;28;27415;-60
2021/04/12 06:45:39;;;;;;;3.33;2.30;;;8.40;70.60;;;;;;5107461;28;27312;-61
2021/04/12 06:49:04;;;;;;;3.00;2.75;;;8.50;70.40;;;;;;5106419;28;27582;-60
2021/04/12 06:53:07;;;;;;;5.07;2.63;;;8.60;70.30;;;;;;5106833;28;27358;-65
2021/04/12 06:57:04;;;;;;;5.65;2.70;;;8.60;70.20;;;;;;5106362;27;27351;-60
2021/04/12 07:00:26;;;;;;;3.40;3.10;;;8.60;70.20;;;;;;5106530;28;27376;-61
2021/04/12 07:03:50;;;;;;;5.57;3.28;;;8.60;70.50;;;;;;5106932;27;27402;-60
2021/04/12 07:07:20;;;;;;;4.03;3.13;;;8.60;70.60;;;;;;5105684;28;27583;-60
2021/04/12 07:10:46;;;;;;;4.10;3.10;;;8.60;70.50;;;;;;5103408;28;27457;-60
2021/04/12 07:14:29;;;;;;;4.22;3.53;;;8.50;71.00;;;;;;5106404;28;27426;-60
2021/04/12 07:17:53;;;;;;;4.50;3.42;;;8.50;71.20;;;;;;5106335;28;27390;-60
2021/04/12 07:21:33;;;;;;;4.78;4.15;;;8.50;71.50;;;;;;5106562;28;27372;-60
2021/04/12 07:24:30;;;;;;;5.65;3.35;;;8.40;71.90;;;;;;5106509;28;27472;-61
2021/04/12 07:27:57;;;;;;;4.65;3.75;;;8.50;71.90;;;;;;5103556;28;27336;-60
2021/04/12 07:31:18;;;;;;;5.03;4.05;;;8.50;72.60;;;;;;5106683;28;27376;-60
2021/04/12 07:34:22;;;;;;;6.03;4.00;;;8.50;72.80;;;;;;5106462;28;27412;-61
2021/04/12 07:37:46;;;;;;;4.55;3.58;;;8.50;72.80;;;;;;5106356;28;27446;-61
2021/04/12 07:41:27;;;;;;;4.63;4.13;;;8.50;73.40;;;;;;5104917;28;27401;-60
2021/04/12 07:45:02;;;;;;;4.60;3.88;;;8.50;73.30;;;;;;5106106;28;27412;-60
2021/04/12 07:48:26;;;;;;;5.47;3.58;;;8.60;73.50;;;;;;5106394;28;27859;-60
2021/04/12 07:51:31;;;;;;;5.82;4.40;;;8.60;74.20;;;;;;5106141;28;27389;-60
2021/04/12 07:54:32;;;;;;;5.55;4.28;;;8.60;74.20;;;;;;5105943;28;27347;-61
2021/04/12 07:57:48;;;;;;;5.05;3.80;;;8.60;74.40;;;;;;5106259;28;27406;-60
2021/04/12 08:01:29;;;;;;;6.30;4.82;;;8.70;74.60;;;;;;5105972;28;27465;-60
2021/04/12 08:04:41;;;;;;;5.43;4.93;;;8.80;74.50;;;;;;5105869;28;27481;-60
2021/04/12 08:08:17;;;;;;;7.35;4.82;;;8.80;74.20;;;;;;5105621;28;26994;-60
2021/04/12 08:11:56;;;;;;;7.30;4.72;;;8.90;74.30;;;;;;5105265;28;27347;-60
2021/04/12 08:15:27;;;;;;;8.15;5.88;;;9.10;74.10;;;;;;5104846;27;27402;-60
2021/04/12 08:18:55;;;;;;;6.60;5.88;;;9.30;72.50;;;;;;5104834;27;27348;-60
2021/04/12 08:22:24;;;;;;;7.57;6.38;;;9.30;72.20;;;;;;5105601;28;26904;-61
2021/04/12 08:25:43;;;;;;;8.25;6.13;;;9.40;71.20;;;;;;5105821;28;27421;-60
2021/04/12 08:28:59;;;;;;;10.00;6.65;;;9.50;71.80;;;;;;5105719;28;27308;-60
2021/04/12 08:32:18;;;;;;;6.82;5.47;;;9.50;72.30;;;;;;5105425;28;27367;-61
2021/04/12 08:35:46;;;;;;;11.07;6.05;;;9.60;72.00;;;;;;5101936;28;27387;-61
2021/04/12 08:38:47;;;;;;;7.78;6.22;;;9.60;72.60;;;;;;5105079;28;27409;-60
2021/04/12 08:41:48;;;;;;;10.07;6.70;;;9.70;71.70;;;;;;5105490;28;27405;-60
2021/04/12 08:44:45;;;;;;;7.03;5.88;;;9.80;72.40;;;;;;5104765;28;27342;-60
2021/04/12 08:48:09;;;;;;;8.40;6.20;;;9.80;72.10;;;;;;5105526;28;26921;-60
2021/04/12 08:51:54;;;;;;;6.47;5.63;;;9.80;72.10;;;;;;5104639;28;27349;-60
2021/04/12 08:55:21;;;;;;;9.10;6.00;;;9.90;72.50;;;;;;5105006;28;27366;-61
2021/04/12 08:58:56;;;;;;;6.95;6.03;;;10.00;72.60;;;;;;5103308;28;27412;-61
2021/04/12 09:02:12;;;;;;;8.70;6.32;;;10.00;72.20;;;;;;5102472;28;27551;-61
2021/04/12 09:05:25;;;;;;;7.25;6.40;;;10.10;72.10;;;;;;5104912;28;27355;-60
2021/04/12 09:08:23;;;;;;;8.85;6.60;;;10.10;72.00;;;;;;5101700;28;27324;-60
2021/04/12 09:11:52;;;;;;;7.68;4.97;;;10.20;72.10;;;;;;5103838;28;27466;-60
2021/04/12 09:15:25;;;;;;;8.52;6.35;;;10.20;71.00;;;;;;5104404;28;27383;-60
2021/04/12 09:18:45;;;;;;;9.10;6.28;;;10.30;70.30;;;;;;5104800;28;27418;-60
2021/04/12 09:21:59;;;;;;;7.50;5.40;;;10.50;69.90;;;;;;5100618;28;27366;-60
2021/04/12 09:25:19;;;;;;;9.48;5.32;;;10.60;70.00;;;;;;5104508;28;27376;-60
2021/04/12 09:28:39;;;;;;;9.38;4.80;;;10.70;69.10;;;;;;5103153;28;27412;-60
2021/04/12 09:32:05;;;;;;;5.13;4.32;;;10.80;69.70;;;;;;5104684;28;27392;-60
2021/04/12 09:36:02;;;;;;;6.70;4.38;;;10.90;69.70;;;;;;5103360;28;27360;-60
2021/04/12 09:39:36;;;;;;;5.32;3.65;;;11.10;67.30;;;;;;5104476;28;27497;-60
2021/04/12 09:43:00;;;;;;;7.03;4.53;;;11.20;68.00;;;;;;5101399;28;27483;-60
2021/04/12 09:46:19;;;;;;;5.90;4.13;;;11.20;66.60;;;;;;5104451;28;27387;-60
2021/04/12 09:49:43;;;;;;;6.88;3.60;;;11.20;66.70;;;;;;5101133;28;27445;-61
2021/04/12 09:53:45;;;;;;;7.40;4.10;;;11.20;66.60;;;;;;5100672;28;27407;-60
2021/04/12 09:56:43;;;;;;;5.50;3.92;;;11.40;66.10;;;;;;5103978;28;27418;-59
2021/04/12 09:59:35;;;;;;;4.47;3.60;;;11.60;66.90;;;;;;5104544;28;27461;-59
2021/04/12 10:02:31;;;;;;;5.32;3.35;;;11.80;65.50;;;;;;5104444;28;27964;-60
2021/04/12 10:05:29;;;;;;;4.45;3.35;;;11.90;65.70;;;;;;5104395;28;27500;-60
2021/04/12 10:08:23;;;;;;;3.22;2.85;;;12.00;64.20;;;;;;5104487;28;27452;-60
2021/04/12 10:11:46;;;;;;;5.95;3.65;;;12.00;64.00;;;;;;5100454;28;27460;-60
2021/04/12 10:15:04;;;;;;;3.67;2.25;;;11.90;63.50;;;;;;5104038;28;27473;-60
2021/04/12 10:18:33;;;;;;;4.25;2.83;;;11.90;64.80;;;;;;5102796;28;27392;-60
2021/04/12 10:21:37;;;;;;;7.32;3.03;;;11.90;65.20;;;;;;5102122;28;27615;-60
2021/04/12 10:25:18;;;;;;;4.07;2.30;;;12.00;64.40;;;;;;5103994;28;27437;-63
2021/04/12 10:29:09;;;;;;;2.78;1.90;;;12.10;64.10;;;;;;5103657;28;27410;-60
2021/04/12 10:32:47;;;;;;;3.58;2.30;;;12.30;63.90;;;;;;5102821;28;28330;-60
2021/04/12 10:35:42;;;;;;;4.75;2.13;;;12.50;63.60;;;;;;5102665;28;27655;-60
2021/04/12 10:39:30;;;;;;;3.03;2.30;;;12.60;63.90;;;;;;5104501;27;27548;-60
2021/04/12 10:42:56;;;;;;;5.43;2.78;;;12.60;61.70;;;;;;5106815;28;27864;-61
2021/04/12 10:46:03;;;;;;;5.32;2.13;;;12.60;61.60;;;;;;5106662;28;27372;-60
2021/04/12 10:49:29;;;;;;;3.58;2.05;;;12.40;63.60;;;;;;5106618;28;27368;-60
2021/04/12 10:53:01;;;;;;;4.28;2.20;;;12.50;63.30;;;;;;5105320;28;27332;-60
2021/04/12 10:56:10;;;;;;;1.50;1.35;;;12.50;61.70;;;;;;5106526;28;27938;-60
2021/04/12 10:59:33;;;;;;;2.97;2.03;;;12.50;63.70;;;;;;5106302;28;27402;-60
2021/04/12 11:03:19;;;;;;;2.13;1.65;;;12.60;63.90;;;;;;5102982;28;27312;-60
2021/04/12 11:06:39;;;;;;;5.35;2.22;;;12.70;63.40;;;;;;5106755;28;27406;-60
2021/04/12 11:09:50;;;;;;;3.22;1.90;;;12.70;62.20;;;;;;5103570;28;27414;-60
2021/04/12 11:13:20;;;;;;;2.83;1.88;;;12.80;62.50;;;;;;5105153;28;27342;-60
2021/04/12 11:17:16;;;;;;;3.65;1.80;;;12.90;61.60;;;;;;5103548;28;27383;-61
2021/04/12 11:20:41;;;;;;;2.63;1.35;;;12.80;61.10;;;;;;5106914;28;27449;-61
2021/04/12 11:23:55;;;;;;;5.60;2.08;;;12.80;60.70;;;;;;5103224;28;27344;-60
2021/04/12 11:27:20;;;;;;;2.58;1.60;;;12.80;60.40;;;;;;5106540;28;27509;-61
2021/04/12 11:30:56;;;;;;;2.40;1.67;;;12.80;59.90;;;;;;5106491;28;27392;-60
2021/04/12 11:34:01;;;;;;;3.60;1.85;;;12.80;58.80;;;;;;5117838;27;27622;-61
2021/04/12 11:37:21;;;;;;;2.60;1.30;;;12.80;59.40;;;;;;5106282;28;27602;-60
2021/04/12 11:40:51;;;;;;;2.72;1.80;;;12.70;59.60;;;;;;5105788;28;27378;-62
2021/04/12 11:44:32;;;;;;;2.08;1.60;;;12.70;59.40;;;;;;5106297;28;27452;-60
2021/04/12 11:47:54;;;;;;;3.90;1.90;;;12.60;58.60;;;;;;5106239;28;27415;-60
2021/04/12 11:51:04;;;;;;;1.95;1.70;;;12.50;58.90;;;;;;5105518;28;27370;-60
2021/04/12 11:54:27;;;;;;;2.65;1.98;;;12.70;60.60;;;;;;5104862;28;27478;-60
2021/04/12 11:57:46;;;;;;;3.08;2.35;;;13.00;60.40;;;;;;5104190;28;27500;-60
2021/04/12 12:01:12;;;;;;;2.80;1.88;;;13.30;59.60;;;;;;5106062;28;27408;-61
2021/04/12 12:04:15;;;;;;;2.80;1.80;;;13.40;60.00;;;;;;5105859;28;27840;-61
2021/04/12 12:07:48;;;;;;;3.13;1.83;;;13.40;60.30;;;;;;5106278;28;27427;-60
2021/04/12 12:11:08;;;;;;;4.65;1.77;;;13.60;60.00;;;;;;5104041;28;27405;-60
2021/04/12 12:14:10;;;;;;;3.25;2.00;;;13.80;60.40;;;;;;5105987;28;27311;-60
2021/04/12 12:17:19;;;;;;;4.20;2.05;;;14.00;60.90;;;;;;5105436;28;27530;-61
2021/04/12 12:20:23;;;;;;;3.47;2.60;;;14.00;59.80;;;;;;5105425;28;27433;-60
2021/04/12 12:23:46;;;;;;;1.85;1.70;;;13.90;58.60;;;;;;5106134;28;27316;-61
2021/04/12 12:27:18;;;;;;;2.70;2.00;;;13.60;60.10;;;;;;5106047;28;27343;-60
2021/04/12 12:30:29;;;;;;;4.35;2.60;;;13.40;59.70;;;;;;5105634;28;27328;-60
2021/04/12 12:33:36;;;;;;;5.32;2.15;;;13.20;60.30;;;;;;5101731;28;27364;-61
2021/04/12 12:37:06;;;;;;;3.13;1.98;;;13.00;60.20;;;;;;5105551;28;27433;-61
2021/04/12 12:40:52;;;;;;;3.15;2.20;;;12.90;62.30;;;;;;5104802;28;27554;-61
2021/04/12 12:44:02;;;;;;;4.57;2.28;;;12.80;60.20;;;;;;5104123;28;27903;-60
2021/04/12 12:47:14;;;;;;;5.10;2.47;;;12.60;58.20;;;;;;5090090;28;27510;-61
2021/04/12 12:50:43;;;;;;;2.55;2.35;;;12.50;58.00;;;;;;5105121;28;27407;-60
2021/04/12 12:53:54;;;;;;;2.97;1.83;;;12.30;58.30;;;;;;5104133;28;27591;-61
2021/04/12 12:56:50;;;;;;;3.45;2.28;;;12.20;58.20;;;;;;5104244;28;27393;-60
2021/04/12 13:00:10;;;;;;;4.30;2.30;;;12.10;58.20;;;;;;5105251;28;27369;-61
2021/04/12 13:03:39;;;;;;;4.45;1.90;;;12.00;59.80;;;;;;5104153;27;27513;-63
2021/04/12 13:07:08;;;;;;;2.40;1.73;;;11.90;59.40;;;;;;5104870;28;27335;-60
2021/04/12 13:10:17;;;;;;;3.40;2.50;;;11.90;60.80;;;;;;5104070;28;27950;-60
2021/04/12 13:13:24;;;;;;;4.40;2.20;;;11.90;60.00;;;;;;5103797;28;27371;-60
2021/04/12 13:16:30;;;;;;;3.17;2.00;;;12.00;61.90;;;;;;5104463;28;27391;-60
2021/04/12 19:19:50;;;;;;;5.97;3.65;;;8.70;63.10;;;;;;4876603;28;29077;-61
2021/04/12 19:23:00;;;;;;;4.55;3.90;;;8.60;63.10;;;;;;5107054;28;27442;-64
2021/04/12 19:26:06;;;;;;;4.00;3.58;;;8.50;63.20;;;;;;5106655;28;26892;-62
2021/04/12 19:29:01;;;;;;;7.32;4.90;;;8.50;63.20;;;;;;5106013;28;27406;-60
2021/04/12 19:32:22;;;;;;;5.63;4.25;;;8.50;63.20;;;;;;5106434;28;27324;-61
2021/04/12 19:35:36;;;;;;;5.97;3.95;;;8.40;63.10;;;;;;5106012;28;27512;-61
2021/04/12 19:38:43;;;;;;;8.57;3.60;;;8.40;63.30;;;;;;5106367;28;27430;-60
2021/04/12 19:41:52;;;;;;;5.88;3.80;;;8.30;63.10;;;;;;5106243;28;27336;-61
2021/04/12 19:45:14;;;;;;;6.82;4.05;;;8.20;63.10;;;;;;5102338;28;27332;-61
2021/04/12 19:48:27;;;;;;;5.00;3.88;;;8.20;63.10;;;;;;5106556;28;27328;-64
2021/04/12 19:51:34;;;;;;;4.82;3.35;;;8.10;63.10;;;;;;5106354;28;27477;-61
2021/04/12 19:55:27;;;;;;;4.88;3.20;;;8.10;63.30;;;;;;5103286;28;27873;-61
2021/04/12 19:58:44;;;;;;;9.80;4.75;;;8.00;63.30;;;;;;5106343;28;27409;-61
2021/04/12 20:02:29;;;;;;;14.77;8.38;;;8.00;63.30;;;;;;5105704;28;27439;-61
2021/04/12 20:05:42;;;;;;;20.88;11.23;;;7.90;63.40;;;;;;5105156;28;27780;-61
2021/04/12 20:08:55;;;;;;;14.82;8.48;;;7.80;63.30;;;;;;5105795;28;27789;-61
2021/04/12 20:12:21;;;;;;;16.85;8.00;;;7.80;63.50;;;;;;5104802;27;27430;-61
2021/04/12 20:15:26;;;;;;;15.43;8.30;;;7.70;63.60;;;;;;5101865;28;27457;-60
2021/04/12 20:18:55;;;;;;;18.23;8.43;;;7.60;63.50;;;;;;5104254;28;27491;-61
2021/04/12 20:22:30;;;;;;;16.63;8.35;;;7.60;63.80;;;;;;5105860;28;27389;-61
2021/04/12 20:25:25;;;;;;;16.02;8.52;;;7.50;63.90;;;;;;5121877;27;27447;-60
2021/04/12 20:28:35;;;;;;;14.15;7.43;;;7.40;63.90;;;;;;5105870;28;27396;-61
2021/04/12 20:31:39;;;;;;;13.00;7.05;;;7.40;64.00;;;;;;5105735;28;27454;-60
2021/04/12 20:34:43;;;;;;;11.82;6.25;;;7.30;63.90;;;;;;5104806;28;28050;-61
2021/04/12 20:37:47;;;;;;;8.70;5.63;;;7.30;64.20;;;;;;5105596;28;27380;-61
2021/04/12 20:41:12;;;;;;;8.32;5.15;;;7.30;64.20;;;;;;5105305;28;27473;-61
2021/04/12 20:44:19;;;;;;;10.35;5.38;;;7.20;64.20;;;;;;5105705;28;27410;-61
2021/04/12 20:47:12;;;;;;;8.68;5.32;;;7.10;64.20;;;;;;5105537;28;27470;-61
2021/04/12 20:51:00;;;;;;;9.65;4.88;;;7.10;64.60;;;;;;5104795;28;27386;-62
2021/04/12 20:54:28;;;;;;;8.48;4.47;;;7.00;64.50;;;;;;5104666;28;27474;-60
2021/04/12 20:58:17;;;;;;;7.00;4.15;;;7.00;64.50;;;;;;5104837;28;27164;-61
2021/04/12 21:01:40;;;;;;;6.18;3.78;;;7.00;64.60;;;;;;5104969;28;27423;-61
2021/04/12 21:04:42;;;;;;;6.60;3.90;;;6.90;64.60;;;;;;5104899;28;27336;-60
2021/04/12 21:07:43;;;;;;;6.65;3.80;;;6.90;64.50;;;;;;5104333;28;27474;-60
2021/04/12 21:11:10;;;;;;;5.45;3.70;;;6.90;64.80;;;;;;5104826;28;27425;-60
2021/04/12 21:14:30;;;;;;;7.13;4.18;;;6.80;65.00;;;;;;5105001;28;27442;-61
2021/04/12 21:17:34;;;;;;;6.78;3.95;;;6.80;65.30;;;;;;5103826;28;27363;-64
2021/04/12 21:20:42;;;;;;;6.78;3.53;;;6.80;65.80;;;;;;5104350;28;27629;-61
2021/04/12 21:23:50;;;;;;;4.47;2.90;;;6.70;65.90;;;;;;5086431;28;27399;-61
2021/04/12 21:26:40;;;;;;;6.43;3.25;;;6.70;66.00;;;;;;5101330;28;27488;-61
2021/04/12 21:30:51;;;;;;;5.88;3.08;;;6.70;66.10;;;;;;5101020;28;27393;-60
2021/04/12 21:34:12;;;;;;;4.63;3.10;;;6.70;66.20;;;;;;5086152;28;27415;-60
2021/04/12 21:37:25;;;;;;;4.88;3.28;;;6.70;66.20;;;;;;5103854;28;27451;-61
2021/04/12 21:40:36;;;;;;;4.28;3.15;;;6.60;66.00;;;;;;5103596;28;27388;-60
2021/04/12 21:44:09;;;;;;;4.88;3.55;;;6.60;65.90;;;;;;5104600;28;27467;-61
2021/04/12 21:47:18;;;;;;;5.05;3.42;;;6.60;65.80;;;;;;5088803;28;27431;-60
2021/04/12 21:50:25;;;;;;;6.13;3.97;;;6.50;65.90;;;;;;5103474;28;26951;-64
2021/04/12 21:53:35;;;;;;;7.80;3.25;;;6.50;65.70;;;;;;5100143;28;27871;-61
2021/04/12 21:57:04;;;;;;;5.57;3.40;;;6.50;65.80;;;;;;5100613;28;27485;-60
2021/04/12 22:00:17;;;;;;;6.72;3.63;;;6.50;66.10;;;;;;5104193;28;27398;-60
2021/04/12 22:03:28;;;;;;;3.70;2.95;;;6.50;65.90;;;;;;5104399;28;27342;-61
2021/04/12 22:06:29;;;;;;;5.03;3.38;;;6.40;65.80;;;;;;5104436;28;27474;-61
2021/04/12 22:09:56;;;;;;;3.80;2.90;;;6.50;65.90;;;;;;5101122;28;27340;-61
2021/04/12 22:12:49;;;;;;;3.80;3.17;;;6.40;65.90;;;;;;5104385;28;27336;-62
2021/04/12 22:16:07;;;;;;;4.63;3.35;;;6.40;66.10;;;;;;5100820;28;27315;-61
2021/04/12 22:19:14;;;;;;;3.30;2.83;;;6.40;66.40;;;;;;5103658;28;27906;-62
2021/04/12 22:22:25;;;;;;;5.40;3.25;;;6.40;66.50;;;;;;5103657;28;27588;-60
2021/04/12 22:25:28;;;;;;;3.63;2.67;;;6.40;66.60;;;;;;5103391;28;27466;-60
2021/04/12 22:29:18;;;;;;;4.65;3.20;;;6.40;66.80;;;;;;5102903;28;27380;-61
2021/04/12 22:32:26;;;;;;;4.05;2.83;;;6.40;66.90;;;;;;5085506;28;27403;-61
2021/04/12 22:42:46;;;;;;;5.18;2.58;;;6.30;67.20;;;;;;5104053;28;27622;-61
2021/04/12 22:45:36;;;;;;;3.38;2.80;;;6.30;67.20;;;;;;5105440;28;27954;-60
2021/04/12 22:49:59;;;;;;;4.45;2.55;;;6.30;67.40;;;;;;5104979;28;27360;-60
2021/04/12 22:52:54;;;;;;;4.28;3.05;;;6.30;67.60;;;;;;5075292;28;27421;-61
2021/04/12 22:56:44;;;;;;;6.00;4.32;;;6.30;67.70;;;;;;5104418;28;27456;-61
2021/04/12 22:59:58;;;;;;;6.20;3.90;;;6.30;67.80;;;;;;5104639;28;27952;-60
2021/04/12 23:03:30;;;;;;;5.95;3.70;;;6.20;67.80;;;;;;5105233;28;27405;-61
2021/04/12 23:06:20;;;;;;;4.50;3.45;;;6.20;67.80;;;;;;5102209;28;27514;-60
2021/04/12 23:09:24;;;;;;;6.47;4.00;;;6.30;67.90;;;;;;5106632;28;27474;-62
2021/04/12 23:12:28;;;;;;;6.05;3.95;;;6.20;67.90;;;;;;5103314;28;27338;-61
2021/04/12 23:15:42;;;;;;;9.05;4.10;;;6.20;67.90;;;;;;5106486;28;27336;-61
2021/04/12 23:19:11;;;;;;;6.13;4.03;;;6.30;68.00;;;;;;5105102;28;27379;-62
2021/04/12 23:22:31;;;;;;;5.07;3.33;;;6.20;67.90;;;;;;5106733;28;27377;-61
2021/04/12 23:25:57;;;;;;;5.13;4.05;;;6.20;67.80;;;;;;5103493;28;27401;-61
2021/04/12 23:29:25;;;;;;;6.80;3.60;;;6.30;67.60;;;;;;5106290;28;27477;-61
2021/04/12 23:32:39;;;;;;;4.35;3.80;;;6.20;67.30;;;;;;5103468;28;27399;-61
2021/04/12 23:36:06;;;;;;;5.68;3.67;;;6.20;67.30;;;;;;5103765;28;27417;-60